Vedra, Spain
Current Conditions -  °F | °C
As of 1:00 AM on Sunday 23 Nov 2014 (Local Time) from LEST Reporting Station
Broken Clouds Broken Clouds  
Wind Chill: 52°   Ceiling: 4500
Heat Index: 52°   Visibility: 6mi
Dew Point: 52°   Wind: 1mph
Humidity: 100%   Direction: NA
Pressure: 29.91"   Gusts: NA
Location:  42.78°N, 8.48°W
Report Text: LEST 230000Z VRB01KT 9999 SCT003 BKN045 11/11 Q1013 TEMPO3000 RA BKN005
Loading
Personal Weather Stations






























Interactive Weather Map New forecast layout! Learn more

10-Day Weather Forecast

Advertisements
Track Severe Weather on mobile